sensor_id;sensor_type;location;lat;lon;timestamp;pressure;altitude;pressure_sealevel;temperature;humidity
5284;BME280;15377;48.540;9.268;2023-02-19T00:02:24;97997.44;;;10.33;100.00
5284;BME280;15377;48.540;9.268;2023-02-19T00:04:50;97999.47;;;10.33;100.00
5284;BME280;15377;48.540;9.268;2023-02-19T00:07:15;97993.47;;;10.34;100.00
5284;BME280;15377;48.540;9.268;2023-02-19T00:09:40;97990.13;;;10.39;100.00
5284;BME280;15377;48.540;9.268;2023-02-19T00:12:06;97991.66;;;10.40;100.00
5284;BME280;15377;48.540;9.268;2023-02-19T00:14:31;97981.44;;;10.41;100.00
5284;BME280;15377;48.540;9.268;2023-02-19T00:16:56;97982.81;;;10.45;100.00
5284;BME280;15377;48.540;9.268;2023-02-19T00:19:22;97986.78;;;10.53;100.00
5284;BME280;15377;48.540;9.268;2023-02-19T00:21:50;97986.34;;;10.55;100.00
5284;BME280;15377;48.540;9.268;2023-02-19T00:24:16;97995.81;;;10.54;100.00
5284;BME280;15377;48.540;9.268;2023-02-19T00:26:42;97986.34;;;10.55;100.00
5284;BME280;15377;48.540;9.268;2023-02-19T00:29:12;97984.03;;;10.53;100.00
5284;BME280;15377;48.540;9.268;2023-02-19T00:31:37;97977.94;;;10.58;100.00
5284;BME280;15377;48.540;9.268;2023-02-19T00:34:05;97969.22;;;10.51;100.00
5284;BME280;15377;48.540;9.268;2023-02-19T00:36:32;97979.47;;;10.59;100.00
5284;BME280;15377;48.540;9.268;2023-02-19T00:38:58;97983.13;;;10.56;100.00
5284;BME280;15377;48.540;9.268;2023-02-19T00:41:24;97975.34;;;10.55;100.00
5284;BME280;15377;48.540;9.268;2023-02-19T00:43:54;97975.78;;;10.53;100.00
5284;BME280;15377;48.540;9.268;2023-02-19T00:46:25;97967.19;;;10.42;100.00
5284;BME280;15377;48.540;9.268;2023-02-19T00:48:51;97964.00;;;10.44;100.00
5284;BME280;15377;48.540;9.268;2023-02-19T00:51:17;97968.44;;;10.50;100.00
5284;BME280;15377;48.540;9.268;2023-02-19T00:53:43;97968.44;;;10.50;100.00
5284;BME280;15377;48.540;9.268;2023-02-19T00:56:09;97966.31;;;10.54;100.00
5284;BME280;15377;48.540;9.268;2023-02-19T00:58:35;97974.13;;;10.56;100.00
5284;BME280;15377;48.540;9.268;2023-02-19T01:01:01;97978.84;;;10.55;100.00
5284;BME280;15377;48.540;9.268;2023-02-19T01:03:26;97990.94;;;10.58;100.00
5284;BME280;15377;48.540;9.268;2023-02-19T01:05:52;97981.00;;;10.51;100.00
5284;BME280;15377;48.540;9.268;2023-02-19T01:08:18;97984.97;;;10.59;100.00
5284;BME280;15377;48.540;9.268;2023-02-19T01:10:44;97980.69;;;10.58;100.00
5284;BME280;15377;48.540;9.268;2023-02-19T01:13:10;97973.50;;;10.61;100.00
5284;BME280;15377;48.540;9.268;2023-02-19T01:15:35;97982.22;;;10.68;100.00
5284;BME280;15377;48.540;9.268;2023-02-19T01:18:01;97975.50;;;10.69;100.00
5284;BME280;15377;48.540;9.268;2023-02-19T01:20:27;97972.13;;;10.74;100.00
5284;BME280;15377;48.540;9.268;2023-02-19T01:22:52;97958.97;;;10.69;100.00
5284;BME280;15377;48.540;9.268;2023-02-19T01:25:18;97964.47;;;10.69;100.00
5284;BME280;15377;48.540;9.268;2023-02-19T01:27:44;97957.91;;;10.76;100.00
5284;BME280;15377;48.540;9.268;2023-02-19T01:30:10;97957.75;;;10.79;100.00
5284;BME280;15377;48.540;9.268;2023-02-19T01:32:35;97955.44;;;10.77;100.00
5284;BME280;15377;48.540;9.268;2023-02-19T01:35:01;97951.34;;;10.82;100.00
5284;BME280;15377;48.540;9.268;2023-02-19T01:37:26;97953.31;;;10.82;100.00
5284;BME280;15377;48.540;9.268;2023-02-19T01:39:52;97951.34;;;10.82;100.00
5284;BME280;15377;48.540;9.268;2023-02-19T01:42:17;97946.72;;;10.88;100.00
5284;BME280;15377;48.540;9.268;2023-02-19T01:47:11;97936.03;;;10.90;100.00
5284;BME280;15377;48.540;9.268;2023-02-19T01:49:41;97946.72;;;10.97;100.00
5284;BME280;15377;48.540;9.268;2023-02-19T01:52:28;97920.09;;;10.94;100.00
5284;BME280;15377;48.540;9.268;2023-02-19T01:54:57;97915.53;;;10.91;100.00
5284;BME280;15377;48.540;9.268;2023-02-19T01:57:28;97926.06;;;11.01;100.00
5284;BME280;15377;48.540;9.268;2023-02-19T02:00:01;97934.63;;;11.03;100.00
5284;BME280;15377;48.540;9.268;2023-02-19T02:02:27;97932.63;;;11.04;100.00
5284;BME280;15377;48.540;9.268;2023-02-19T02:04:55;97931.41;;;11.05;100.00
5284;BME280;15377;48.540;9.268;2023-02-19T02:07:22;97934.94;;;11.05;100.00
5284;BME280;15377;48.540;9.268;2023-02-19T02:10:06;97935.09;;;11.02;100.00
5284;BME280;15377;48.540;9.268;2023-02-19T02:12:44;97925.31;;;11.01;100.00
5284;BME280;15377;48.540;9.268;2023-02-19T02:15:09;97927.75;;;10.99;100.00
5284;BME280;15377;48.540;9.268;2023-02-19T02:17:38;97930.97;;;10.97;100.00
5284;BME280;15377;48.540;9.268;2023-02-19T02:23:14;97937.09;;;11.01;100.00
5284;BME280;15377;48.540;9.268;2023-02-19T02:25:58;97924.09;;;10.93;100.00
5284;BME280;15377;48.540;9.268;2023-02-19T02:31:16;97937.09;;;11.01;100.00
5284;BME280;15377;48.540;9.268;2023-02-19T02:36:26;97930.53;;;10.90;100.00
5284;BME280;15377;48.540;9.268;2023-02-19T02:38:54;97923.63;;;10.94;100.00
5284;BME280;15377;48.540;9.268;2023-02-19T02:41:20;97929.56;;;11.02;100.00
5284;BME280;15377;48.540;9.268;2023-02-19T02:43:45;97934.16;;;11.05;100.00
5284;BME280;15377;48.540;9.268;2023-02-19T02:46:19;97922.25;;;10.99;100.00
5284;BME280;15377;48.540;9.268;2023-02-19T02:48:56;97916.13;;;10.95;100.00
5284;BME280;15377;48.540;9.268;2023-02-19T02:51:38;97924.69;;;10.97;100.00
5284;BME280;15377;48.540;9.268;2023-02-19T02:54:09;97918.56;;;10.93;100.00
5284;BME280;15377;48.540;9.268;2023-02-19T02:56:55;97912.78;;;10.91;100.00
5284;BME280;15377;48.540;9.268;2023-02-19T02:59:23;97918.56;;;10.93;100.00
5284;BME280;15377;48.540;9.268;2023-02-19T03:02:03;97909.69;;;10.89;100.00
5284;BME280;15377;48.540;9.268;2023-02-19T03:04:58;97911.88;;;10.85;100.00
5284;BME280;15377;48.540;9.268;2023-02-19T03:10:36;97876.53;;;10.83;100.00
5284;BME280;15377;48.540;9.268;2023-02-19T03:13:07;97899.91;;;10.88;100.00
5284;BME280;15377;48.540;9.268;2023-02-19T03:16:00;97896.88;;;10.86;100.00
5284;BME280;15377;48.540;9.268;2023-02-19T03:18:47;97896.28;;;10.82;100.00
5284;BME280;15377;48.540;9.268;2023-02-19T03:21:34;97889.53;;;10.83;100.00
5284;BME280;15377;48.540;9.268;2023-02-19T03:24:02;97898.41;;;10.78;100.00
5284;BME280;15377;48.540;9.268;2023-02-19T03:26:47;97909.72;;;10.80;100.00
5284;BME280;15377;48.540;9.268;2023-02-19T03:29:20;97881.91;;;10.69;100.00
5284;BME280;15377;48.540;9.268;2023-02-19T03:31:50;97887.84;;;10.77;100.00
5284;BME280;15377;48.540;9.268;2023-02-19T03:34:53;97905.44;;;10.70;100.00
5284;BME280;15377;48.540;9.268;2023-02-19T03:37:36;97887.13;;;10.67;100.00
5284;BME280;15377;48.540;9.268;2023-02-19T03:40:05;97886.19;;;10.61;100.00
5284;BME280;15377;48.540;9.268;2023-02-19T03:47:53;97890.47;;;10.53;100.00
5284;BME280;15377;48.540;9.268;2023-02-19T03:53:32;97893.25;;;10.44;100.00
5284;BME280;15377;48.540;9.268;2023-02-19T03:59:31;97913.09;;;10.39;100.00
5284;BME280;15377;48.540;9.268;2023-02-19T04:01:59;97914.16;;;10.24;100.00
5284;BME280;15377;48.540;9.268;2023-02-19T04:04:31;97920.72;;;10.26;100.00
5284;BME280;15377;48.540;9.268;2023-02-19T04:06:58;97906.97;;;10.17;100.00
5284;BME280;15377;48.540;9.268;2023-02-19T04:09:30;97926.53;;;10.19;100.00
5284;BME280;15377;48.540;9.268;2023-02-19T04:11:58;97920.41;;;10.15;100.00
5284;BME280;15377;48.540;9.268;2023-02-19T04:14:29;97909.41;;;10.15;100.00
5284;BME280;15377;48.540;9.268;2023-02-19T04:17:02;97926.41;;;10.23;100.00
5284;BME280;15377;48.540;9.268;2023-02-19T04:19:32;97923.94;;;10.25;100.00
5284;BME280;15377;48.540;9.268;2023-02-19T04:21:59;97929.44;;;10.25;100.00
5284;BME280;15377;48.540;9.268;2023-02-19T04:24:33;97919.97;;;10.26;100.00
5284;BME280;15377;48.540;9.268;2023-02-19T04:27:02;97923.31;;;10.21;100.00
5284;BME280;15377;48.540;9.268;2023-02-19T04:29:28;97943.06;;;10.28;100.00
5284;BME280;15377;48.540;9.268;2023-02-19T04:31:54;97930.53;;;10.27;100.00
5284;BME280;15377;48.540;9.268;2023-02-19T04:34:19;97943.06;;;10.28;100.00
5284;BME280;15377;48.540;9.268;2023-02-19T04:36:44;97937.53;;;10.19;100.00
5284;BME280;15377;48.540;9.268;2023-02-19T04:39:10;97950.69;;;10.24;100.00
5284;BME280;15377;48.540;9.268;2023-02-19T04:41:35;97949.16;;;10.23;100.00
5284;BME280;15377;48.540;9.268;2023-02-19T04:44:00;97965.06;;;10.19;100.00
5284;BME280;15377;48.540;9.268;2023-02-19T04:46:26;97969.78;;;10.19;100.00
5284;BME280;15377;48.540;9.268;2023-02-19T04:48:51;97975.28;;;10.19;100.00
5284;BME280;15377;48.540;9.268;2023-02-19T04:51:16;97968.69;;;10.16;100.00
5284;BME280;15377;48.540;9.268;2023-02-19T04:53:42;97960.72;;;10.09;100.00
5284;BME280;15377;48.540;9.268;2023-02-19T04:56:13;97969.91;;;10.15;100.00
5284;BME280;15377;48.540;9.268;2023-02-19T04:58:40;97976.91;;;10.07;100.00
5284;BME280;15377;48.540;9.268;2023-02-19T05:01:06;97979.47;;;9.93;100.00
5284;BME280;15377;48.540;9.268;2023-02-19T05:03:32;97969.75;;;9.79;100.00
5284;BME280;15377;48.540;9.268;2023-02-19T05:06:03;97973.09;;;9.65;100.00
5284;BME280;15377;48.540;9.268;2023-02-19T05:08:29;97970.31;;;9.56;100.00
5284;BME280;15377;48.540;9.268;2023-02-19T05:10:59;97976.38;;;9.51;100.00
5284;BME280;15377;48.540;9.268;2023-02-19T05:13:24;97981.34;;;9.44;100.00
5284;BME280;15377;48.540;9.268;2023-02-19T05:15:58;97980.59;;;9.43;100.00
5284;BME280;15377;48.540;9.268;2023-02-19T05:18:24;97986.84;;;9.44;100.00
5284;BME280;15377;48.540;9.268;2023-02-19T05:20:50;97986.41;;;9.45;100.00
5284;BME280;15377;48.540;9.268;2023-02-19T05:23:16;97986.84;;;9.44;100.00
5284;BME280;15377;48.540;9.268;2023-02-19T05:25:41;97982.78;;;9.48;100.00
5284;BME280;15377;48.540;9.268;2023-02-19T05:28:07;97989.66;;;9.53;100.00
5284;BME280;15377;48.540;9.268;2023-02-19T05:30:45;97979.44;;;9.53;100.00
5284;BME280;15377;48.540;9.268;2023-02-19T05:33:10;97967.47;;;9.47;100.00
5284;BME280;15377;48.540;9.268;2023-02-19T05:35:45;98005.72;;;9.63;100.00
5284;BME280;15377;48.540;9.268;2023-02-19T05:38:11;98000.88;;;9.67;100.00
5284;BME280;15377;48.540;9.268;2023-02-19T05:40:37;98004.84;;;9.66;100.00
5284;BME280;15377;48.540;9.268;2023-02-19T05:43:03;98016.91;;;9.69;100.00
5284;BME280;15377;48.540;9.268;2023-02-19T05:45:29;98009.72;;;9.71;100.00
5284;BME280;15377;48.540;9.268;2023-02-19T05:47:54;98003.78;;;9.73;100.00
5284;BME280;15377;48.540;9.268;2023-02-19T05:50:20;97999.38;;;9.75;100.00
5284;BME280;15377;48.540;9.268;2023-02-19T05:52:45;97992.19;;;9.69;100.00
5284;BME280;15377;48.540;9.268;2023-02-19T05:55:10;98008.53;;;9.72;100.00
5284;BME280;15377;48.540;9.268;2023-02-19T05:57:44;98008.19;;;9.70;100.00
5284;BME280;15377;48.540;9.268;2023-02-19T06:00:14;98008.69;;;9.69;100.00
5284;BME280;15377;48.540;9.268;2023-02-19T06:02:40;98011.44;;;9.69;100.00
5284;BME280;15377;48.540;9.268;2023-02-19T06:05:06;98004.72;;;9.70;100.00
5284;BME280;15377;48.540;9.268;2023-02-19T06:07:32;98009.13;;;9.67;100.00
5284;BME280;15377;48.540;9.268;2023-02-19T06:09:58;98008.94;;;9.62;100.00
5284;BME280;15377;48.540;9.268;2023-02-19T06:12:23;98015.06;;;9.66;100.00
5284;BME280;15377;48.540;9.268;2023-02-19T06:14:49;98015.06;;;9.66;100.00
5284;BME280;15377;48.540;9.268;2023-02-19T06:17:14;98020.25;;;9.64;100.00
5284;BME280;15377;48.540;9.268;2023-02-19T06:19:40;98016.72;;;9.63;100.00
5284;BME280;15377;48.540;9.268;2023-02-19T06:22:05;98031.41;;;9.69;100.00
5284;BME280;15377;48.540;9.268;2023-02-19T06:24:31;98033.84;;;9.67;100.00
5284;BME280;15377;48.540;9.268;2023-02-19T06:26:56;98037.03;;;9.66;100.00
5284;BME280;15377;48.540;9.268;2023-02-19T06:29:22;98050.78;;;9.66;100.00
5284;BME280;15377;48.540;9.268;2023-02-19T06:31:48;98056.44;;;9.71;100.00
5284;BME280;15377;48.540;9.268;2023-02-19T06:34:13;98054.31;;;9.66;100.00
5284;BME280;15377;48.540;9.268;2023-02-19T06:36:38;98063.00;;;9.65;100.00
5284;BME280;15377;48.540;9.268;2023-02-19T06:39:04;98069.25;;;9.65;100.00
5284;BME280;15377;48.540;9.268;2023-02-19T06:41:29;98078.72;;;9.64;100.00
5284;BME280;15377;48.540;9.268;2023-02-19T06:43:58;98072.44;;;9.64;100.00
5284;BME280;15377;48.540;9.268;2023-02-19T06:46:24;98085.75;;;9.65;100.00
5284;BME280;15377;48.540;9.268;2023-02-19T06:48:49;98077.03;;;9.67;100.00
5284;BME280;15377;48.540;9.268;2023-02-19T06:51:18;98087.28;;;9.66;100.00
5284;BME280;15377;48.540;9.268;2023-02-19T06:53:44;98094.13;;;9.62;100.00
5284;BME280;15377;48.540;9.268;2023-02-19T06:56:27;98106.06;;;9.46;100.00
5284;BME280;15377;48.540;9.268;2023-02-19T06:58:55;98113.28;;;9.31;100.00
5284;BME280;15377;48.540;9.268;2023-02-19T07:01:21;98116.25;;;9.24;100.00
5284;BME280;15377;48.540;9.268;2023-02-19T07:03:47;98128.72;;;9.16;100.00
5284;BME280;15377;48.540;9.268;2023-02-19T07:06:12;98116.91;;;9.07;100.00
5284;BME280;15377;48.540;9.268;2023-02-19T07:08:37;98115.50;;;9.02;100.00
5284;BME280;15377;48.540;9.268;2023-02-19T07:11:03;98126.47;;;9.02;100.00
5284;BME280;15377;48.540;9.268;2023-02-19T07:13:28;98130.44;;;9.01;100.00
5284;BME280;15377;48.540;9.268;2023-02-19T07:15:59;98124.03;;;9.04;100.00
5284;BME280;15377;48.540;9.268;2023-02-19T07:18:25;98139.63;;;9.07;100.00
5284;BME280;15377;48.540;9.268;2023-02-19T07:20:50;98142.69;;;9.09;100.00
5284;BME280;15377;48.540;9.268;2023-02-19T07:23:16;98152.13;;;9.08;100.00
5284;BME280;15377;48.540;9.268;2023-02-19T07:25:41;98153.34;;;9.07;100.00
5284;BME280;15377;48.540;9.268;2023-02-19T07:28:06;98156.09;;;9.07;100.00
5284;BME280;15377;48.540;9.268;2023-02-19T07:30:32;98154.56;;;9.06;100.00
5284;BME280;15377;48.540;9.268;2023-02-19T07:32:57;98164.97;;;9.11;100.00
5284;BME280;15377;48.540;9.268;2023-02-19T07:35:23;98159.06;;;9.13;100.00
5284;BME280;15377;48.540;9.268;2023-02-19T07:37:48;98159.69;;;9.17;100.00
5284;BME280;15377;48.540;9.268;2023-02-19T07:40:13;98169.66;;;9.23;100.00
5284;BME280;15377;48.540;9.268;2023-02-19T07:42:39;98159.34;;;9.27;100.00
5284;BME280;15377;48.540;9.268;2023-02-19T07:45:04;98169.41;;;9.30;100.00
5284;BME280;15377;48.540;9.268;2023-02-19T07:47:30;98150.78;;;9.25;100.00
5284;BME280;15377;48.540;9.268;2023-02-19T07:49:55;98167.97;;;9.38;100.00
5284;BME280;15377;48.540;9.268;2023-02-19T07:52:21;98164.78;;;9.40;100.00
5284;BME280;15377;48.540;9.268;2023-02-19T07:54:46;98167.41;;;9.43;100.00
5284;BME280;15377;48.540;9.268;2023-02-19T07:57:12;98161.91;;;9.43;100.00
5284;BME280;15377;48.540;9.268;2023-02-19T07:59:38;98165.56;;;9.40;100.00
5284;BME280;15377;48.540;9.268;2023-02-19T08:02:03;98165.88;;;9.42;100.00
5284;BME280;15377;48.540;9.268;2023-02-19T08:04:47;98173.81;;;9.40;100.00
5284;BME280;15377;48.540;9.268;2023-02-19T08:07:13;98183.88;;;9.43;100.00
5284;BME280;15377;48.540;9.268;2023-02-19T08:09:38;98181.47;;;9.45;100.00
5284;BME280;15377;48.540;9.268;2023-02-19T08:12:04;98175.97;;;9.45;100.00
5284;BME280;15377;48.540;9.268;2023-02-19T08:14:48;98170.22;;;9.52;100.00
5284;BME280;15377;48.540;9.268;2023-02-19T08:17:13;98183.66;;;9.50;100.00
5284;BME280;15377;48.540;9.268;2023-02-19T08:19:38;98174.81;;;9.55;100.00
5284;BME280;15377;48.540;9.268;2023-02-19T08:22:04;98182.63;;;9.57;100.00
5284;BME280;15377;48.540;9.268;2023-02-19T08:24:29;98181.88;;;9.56;100.00
5284;BME280;15377;48.540;9.268;2023-02-19T08:26:57;98175.97;;;9.45;100.00
5284;BME280;15377;48.540;9.268;2023-02-19T08:29:23;98173.66;;;9.44;100.00
5284;BME280;15377;48.540;9.268;2023-02-19T08:31:48;98186.94;;;9.45;100.00
5284;BME280;15377;48.540;9.268;2023-02-19T08:34:14;98192.69;;;9.38;100.00
5284;BME280;15377;48.540;9.268;2023-02-19T08:36:39;98198.66;;;9.24;100.00
5284;BME280;15377;48.540;9.268;2023-02-19T08:39:07;98192.75;;;9.13;100.00
5284;BME280;15377;48.540;9.268;2023-02-19T08:41:32;98193.22;;;8.99;100.00
5284;BME280;15377;48.540;9.268;2023-02-19T08:43:57;98203.34;;;9.02;100.00
5284;BME280;15377;48.540;9.268;2023-02-19T08:46:23;98218.28;;;9.01;100.00
5284;BME280;15377;48.540;9.268;2023-02-19T08:48:48;98221.03;;;9.01;100.00
5284;BME280;15377;48.540;9.268;2023-02-19T08:51:14;98214.19;;;9.06;100.00
5284;BME280;15377;48.540;9.268;2023-02-19T08:53:40;98216.38;;;9.11;100.00
5284;BME280;15377;48.540;9.268;2023-02-19T08:56:07;98213.72;;;9.20;100.00
5284;BME280;15377;48.540;9.268;2023-02-19T08:58:32;98219.22;;;9.32;100.00
5284;BME280;15377;48.540;9.268;2023-02-19T09:00:58;98221.44;;;9.46;100.00
5284;BME280;15377;48.540;9.268;2023-02-19T09:03:23;98221.75;;;9.61;100.00
5284;BME280;15377;48.540;9.268;2023-02-19T09:05:49;98224.88;;;9.72;100.00
5284;BME280;15377;48.540;9.268;2023-02-19T09:08:14;98227.50;;;9.75;100.00
5284;BME280;15377;48.540;9.268;2023-02-19T09:10:40;98230.69;;;9.74;100.00
5284;BME280;15377;48.540;9.268;2023-02-19T09:13:05;98235.50;;;9.82;100.00
5284;BME280;15377;48.540;9.268;2023-02-19T09:15:31;98238.00;;;9.89;100.00
5284;BME280;15377;48.540;9.268;2023-02-19T09:17:58;98245.28;;;9.83;100.00
5284;BME280;15377;48.540;9.268;2023-02-19T09:20:23;98255.25;;;9.90;100.00
5284;BME280;15377;48.540;9.268;2023-02-19T09:22:49;98247.47;;;9.88;100.00
5284;BME280;15377;48.540;9.268;2023-02-19T09:25:14;98250.53;;;9.90;100.00
5284;BME280;15377;48.540;9.268;2023-02-19T09:27:40;98251.28;;;9.91;100.00
5284;BME280;15377;48.540;9.268;2023-02-19T09:30:05;98250.53;;;9.90;100.00
5284;BME280;15377;48.540;9.268;2023-02-19T09:32:31;98261.91;;;10.01;100.00
5284;BME280;15377;48.540;9.268;2023-02-19T09:34:56;98273.16;;;9.94;100.00
5284;BME280;15377;48.540;9.268;2023-02-19T09:37:28;98275.09;;;9.85;100.00
5284;BME280;15377;48.540;9.268;2023-02-19T09:39:54;98292.19;;;9.67;100.00
5284;BME280;15377;48.540;9.268;2023-02-19T09:42:21;98279.13;;;9.46;100.00
5284;BME280;15377;48.540;9.268;2023-02-19T09:44:51;98296.00;;;9.11;100.00
5284;BME280;15377;48.540;9.268;2023-02-19T09:47:18;98281.53;;;8.85;100.00
5284;BME280;15377;48.540;9.268;2023-02-19T09:49:47;98290.50;;;8.73;100.00
5284;BME280;15377;48.540;9.268;2023-02-19T09:52:24;98302.00;;;8.68;100.00
5284;BME280;15377;48.540;9.268;2023-02-19T09:54:54;98287.13;;;8.69;100.00
5284;BME280;15377;48.540;9.268;2023-02-19T09:57:22;98287.03;;;8.85;100.00
5284;BME280;15377;48.540;9.268;2023-02-19T10:00:22;98293.38;;;9.07;100.00
5284;BME280;15377;48.540;9.268;2023-02-19T10:02:53;98288.53;;;9.11;100.00
5284;BME280;15377;48.540;9.268;2023-02-19T10:05:20;98297.78;;;9.17;100.00
5284;BME280;15377;48.540;9.268;2023-02-19T10:07:48;98299.09;;;9.25;100.00
5284;BME280;15377;48.540;9.268;2023-02-19T10:12:48;98292.25;;;9.42;100.00
5284;BME280;15377;48.540;9.268;2023-02-19T10:15:18;98298.16;;;9.53;100.00
5284;BME280;15377;48.540;9.268;2023-02-19T10:17:46;98299.44;;;9.61;100.00
5284;BME280;15377;48.540;9.268;2023-02-19T10:20:14;98287.91;;;9.66;100.00
5284;BME280;15377;48.540;9.268;2023-02-19T10:22:40;98292.56;;;9.78;100.00
5284;BME280;15377;48.540;9.268;2023-02-19T10:25:06;98301.56;;;9.91;100.00
5284;BME280;15377;48.540;9.268;2023-02-19T10:27:31;98304.63;;;9.93;100.00
5284;BME280;15377;48.540;9.268;2023-02-19T10:29:57;98304.97;;;9.95;100.00
5284;BME280;15377;48.540;9.268;2023-02-19T10:32:25;98311.41;;;10.01;100.00
5284;BME280;15377;48.540;9.268;2023-02-19T10:35:11;98307.19;;;9.88;100.00
5284;BME280;15377;48.540;9.268;2023-02-19T10:37:45;98310.38;;;9.86;100.00
5284;BME280;15377;48.540;9.268;2023-02-19T10:40:17;98319.34;;;9.99;100.00
5284;BME280;15377;48.540;9.268;2023-02-19T10:42:48;98318.81;;;10.04;100.00
5284;BME280;15377;48.540;9.268;2023-02-19T10:45:38;98328.13;;;10.19;100.00
5284;BME280;15377;48.540;9.268;2023-02-19T10:48:05;98331.81;;;10.25;100.00
5284;BME280;15377;48.540;9.268;2023-02-19T10:50:34;98331.97;;;10.43;100.00
5284;BME280;15377;48.540;9.268;2023-02-19T10:53:19;98337.47;;;10.09;100.00
5284;BME280;15377;48.540;9.268;2023-02-19T10:55:46;98333.88;;;10.12;100.00
5284;BME280;15377;48.540;9.268;2023-02-19T10:58:23;98344.50;;;10.10;100.00
5284;BME280;15377;48.540;9.268;2023-02-19T11:01:10;98341.94;;;10.28;100.00
5284;BME280;15377;48.540;9.268;2023-02-19T11:03:36;98345.91;;;10.49;100.00
5284;BME280;15377;48.540;9.268;2023-02-19T11:06:04;98354.47;;;10.72;100.00
5284;BME280;15377;48.540;9.268;2023-02-19T11:08:53;98336.72;;;10.73;100.00
5284;BME280;15377;48.540;9.268;2023-02-19T11:11:33;98324.00;;;10.67;100.00
5284;BME280;15377;48.540;9.268;2023-02-19T11:14:21;98340.69;;;10.72;100.00
5284;BME280;15377;48.540;9.268;2023-02-19T11:17:06;98333.28;;;10.60;100.00
5284;BME280;15377;48.540;9.268;2023-02-19T11:19:43;98333.50;;;10.44;100.00
5284;BME280;15377;48.540;9.268;2023-02-19T11:22:31;98333.94;;;10.21;100.00
5284;BME280;15377;48.540;9.268;2023-02-19T11:25:20;98317.22;;;10.37;100.00
5284;BME280;15377;48.540;9.268;2023-02-19T11:30:52;98320.97;;;10.43;100.00
5284;BME280;15377;48.540;9.268;2023-02-19T11:35:50;98320.31;;;10.39;100.00
5284;BME280;15377;48.540;9.268;2023-02-19T11:38:17;98311.47;;;10.44;100.00
5284;BME280;15377;48.540;9.268;2023-02-19T11:40:49;98315.81;;;10.54;100.00
5284;BME280;15377;48.540;9.268;2023-02-19T11:46:10;98311.72;;;10.59;100.00
5284;BME280;15377;48.540;9.268;2023-02-19T11:51:29;98310.97;;;10.58;100.00
5284;BME280;15377;48.540;9.268;2023-02-19T11:54:07;98312.50;;;10.59;100.00
5284;BME280;15377;48.540;9.268;2023-02-19T11:56:39;98306.47;;;10.52;100.00
5284;BME280;15377;48.540;9.268;2023-02-19T11:59:41;98311.00;;;10.46;100.00
5284;BME280;15377;48.540;9.268;2023-02-19T12:13:54;98334.91;;;10.27;100.00
5284;BME280;15377;48.540;9.268;2023-02-19T12:16:45;98332.53;;;10.38;100.00
5284;BME280;15377;48.540;9.268;2023-02-19T12:21:57;98350.06;;;10.53;100.00
5284;BME280;15377;48.540;9.268;2023-02-19T12:27:27;98335.28;;;10.38;100.00
5284;BME280;15377;48.540;9.268;2023-02-19T12:30:04;98345.78;;;10.52;100.00
5284;BME280;15377;48.540;9.268;2023-02-19T12:33:00;98346.41;;;10.56;100.00
5284;BME280;15377;48.540;9.268;2023-02-19T12:43:19;98283.88;;;10.87;100.00
5284;BME280;15377;48.540;9.268;2023-02-19T12:46:03;98303.47;;;10.89;100.00
5284;BME280;15377;48.540;9.268;2023-02-19T12:48:45;98288.56;;;11.08;100.00
5284;BME280;15377;48.540;9.268;2023-02-19T12:51:20;98290.00;;;11.30;100.00
5284;BME280;15377;48.540;9.268;2023-02-19T12:53:53;98299.41;;;11.51;100.00
5284;BME280;15377;48.540;9.268;2023-02-19T12:56:28;98306.19;;;11.59;100.00
5284;BME280;15377;48.540;9.268;2023-02-19T12:58:59;98297.19;;;11.28;100.00
5284;BME280;15377;48.540;9.268;2023-02-19T13:01:30;98300.97;;;11.12;100.00
5284;BME280;15377;48.540;9.268;2023-02-19T13:06:40;98288.31;;;11.24;100.00
5284;BME280;15377;48.540;9.268;2023-02-19T13:09:13;98292.66;;;11.43;100.00
5284;BME280;15377;48.540;9.268;2023-02-19T13:11:53;98287.13;;;11.43;100.00
5284;BME280;15377;48.540;9.268;2023-02-19T13:16:56;98281.38;;;11.68;100.00
5284;BME280;15377;48.540;9.268;2023-02-19T13:19:24;98277.72;;;12.07;100.00
5284;BME280;15377;48.540;9.268;2023-02-19T13:21:57;98276.94;;;12.42;100.00
5284;BME280;15377;48.540;9.268;2023-02-19T13:24:46;98245.38;;;12.25;100.00
5284;BME280;15377;48.540;9.268;2023-02-19T13:28:08;98260.28;;;12.01;100.00
5284;BME280;15377;48.540;9.268;2023-02-19T13:33:18;98269.47;;;11.89;100.00
5284;BME280;15377;48.540;9.268;2023-02-19T13:36:08;98267.63;;;11.86;100.00
5284;BME280;15377;48.540;9.268;2023-02-19T13:38:39;98271.13;;;11.86;100.00
5284;BME280;15377;48.540;9.268;2023-02-19T13:41:05;98276.19;;;11.79;100.00
5284;BME280;15377;48.540;9.268;2023-02-19T13:43:41;98282.63;;;11.76;100.00
5284;BME280;15377;48.540;9.268;2023-02-19T13:46:09;98280.00;;;11.63;100.00
5284;BME280;15377;48.540;9.268;2023-02-19T13:48:39;98297.88;;;11.50;100.00
5284;BME280;15377;48.540;9.268;2023-02-19T13:59:01;98290.81;;;11.49;100.00
5284;BME280;15377;48.540;9.268;2023-02-19T14:04:25;98287.47;;;11.54;100.00
5284;BME280;15377;48.540;9.268;2023-02-19T14:12:18;98293.59;;;11.49;100.00
5284;BME280;15377;48.540;9.268;2023-02-19T14:17:24;98290.00;;;11.30;100.00
5284;BME280;15377;48.540;9.268;2023-02-19T14:25:33;98300.56;;;11.23;100.00
5284;BME280;15377;48.540;9.268;2023-02-19T14:28:20;98299.91;;;11.19;100.00
5284;BME280;15377;48.540;9.268;2023-02-19T14:33:17;98295.25;;;10.98;100.00
5284;BME280;15377;48.540;9.268;2023-02-19T14:35:45;98297.06;;;10.92;100.00
5284;BME280;15377;48.540;9.268;2023-02-19T14:38:38;98293.38;;;10.86;100.00
5284;BME280;15377;48.540;9.268;2023-02-19T14:41:06;98300.41;;;10.87;100.00
5284;BME280;15377;48.540;9.268;2023-02-19T14:43:35;98305.09;;;10.77;100.00
5284;BME280;15377;48.540;9.268;2023-02-19T14:46:23;98305.78;;;10.60;100.00
5284;BME280;15377;48.540;9.268;2023-02-19T14:48:52;98321.72;;;10.44;100.00
5284;BME280;15377;48.540;9.268;2023-02-19T14:53:46;98328.28;;;9.91;100.00
5284;BME280;15377;48.540;9.268;2023-02-19T14:56:19;98323.50;;;9.70;100.00
5284;BME280;15377;48.540;9.268;2023-02-19T14:59:04;98311.63;;;9.73;100.00
5284;BME280;15377;48.540;9.268;2023-02-19T15:01:30;98301.97;;;9.68;100.00
5284;BME280;15377;48.540;9.268;2023-02-19T15:03:55;98307.38;;;9.59;100.00